Terminal Aerodrome Forecast
Issued by NWS

Current Version | Previous Version | Graphics & Text | Print | Product List | Glossary On
Versions: 1 2 3 4 5 6 7 8 9 10 11 12 13 14 15 16 17 18
000
FTUS41 KILN 212327
TAFLCK
TAF
KLCK 212327Z 2200/2224 14006KT P6SM VCTS SCT050CB
     FM220200 15005KT P6SM VCTS BKN050CB
      TEMPO 2202/2206 2SM -TSRA BR OVC025CB
     FM220700 16005KT P6SM VCSH BKN050
     FM220900 18005KT P6SM BKN080
     FM221500 23008KT P6SM VCSH BKN050
      AMD NOT SKED=

USA.gov is the U.S. government's official web portal to all federal, state and local government web resources and services.